Gas City, IN

9:38 AM EDT on September 16, 2014 (GMT -0400)
Anderson Municipal-Darlington | Change Station
CLOSE
Current Station
Airport
Location: Anderson,
Elevation: 919 ft
Nearby Weather Stations

Elev 919 ft 40.11 °N, 85.61 °W | Updated 43 minutes ago

Mostly Cloudy
Mostly Cloudy
52 °F
Feels Like 52 °F
N
6
Wind Variable Wind from NE

Today
High -- | Low -- °F
--% Chance of Precip.
Yesterday
High -- | Low -- °F
Precip. -- in
7:24 AM 7:49 PM
Last Quarter, 45% visible
Pressure 30.21 in
Visibility 2.0 miles
Clouds Overcast 700 ft
Dew Point 52 °F
Humidity 100%
Rainfall 0.00 in
Snow Depth Not available.
UV 0 out of 12
Pollen 5.50 out of 12
Air Quality Not available.
Flu Activity Not available.
METAR KAID 161255Z 04005KT 2SM BR OVC007 11/11 A3021

More Conditions Fewer Conditions

Pressure 30.21 in
Visibility 2.0 miles
Clouds Overcast 700 ft
Dew Point 52 °F
Humidity 100%
Rainfall 0.00 in
Snow Depth Not available.
UV 0 out of 12
Pollen 5.50 out of 12
Air Quality Not available.
Flu Activity Not available.
METAR KAID 161255Z 04005KT 2SM BR OVC007 11/11 A3021

More Conditions Fewer Conditions

10-Day Weather Forecast

Almanac

Astronomy

Sep. 16, 2014 Rise Set
Actual Time 7:24 AM EDT 7:49 PM EDT
Civil Twilight 6:56 AM EDT 8:16 PM EDT
Nautical Twilight 6:24 AM EDT 8:49 PM EDT
Astronomical Twilight 5:51 AM EDT 9:21 PM EDT
Moon 12:32 AM EDT 3:13 PM EDT
Length of Visible Light 13h 20m
Length of Day
12h 25m
Tomorrow will be 2m 39s shorter.
Last Quarter, 45% of the Moon is Illuminated
Today
Last Quarter
Sep 24
New
Oct 1
First Quarter
Oct 8
Full
Oct 15
Last Quarter

Today's Extremes

State Highs State Lows

Community

WunderPhotos

Upload Photos

1,753,759 photos uploaded!

Nearby

Snow Depth

Station Depth Elevation
No new snow has been reported.

Earthquake Activity

City Distance Mag. Time & Date
No recent earthquake activity has been reported nearby.
Minimum magnitude displayed is 2.5.

Coastal Water Temperatures

Place Temperature
No Stations Reporting

Nearby Weather Stations